createdAt,value
2023-03-29T00:00:09.598Z,77823.84
2023-03-29T00:02:37.545Z,77823.84
2023-03-29T00:05:06.725Z,77821.81
2023-03-29T00:07:34.698Z,77815.69
2023-03-29T00:10:04.538Z,77811.63
2023-03-29T00:12:32.639Z,77807.53
2023-03-29T00:15:01.936Z,77807.53
2023-03-29T00:17:29.804Z,77801.41
2023-03-29T00:19:57.618Z,77815.69
2023-03-29T00:22:25.899Z,77811.63
2023-03-29T00:24:54.253Z,77819.78
2023-03-29T00:27:22.187Z,77819.78
2023-03-29T00:29:49.987Z,77819.78
2023-03-29T00:32:19.202Z,77825.91
2023-03-29T00:34:50.752Z,77823.84
2023-03-29T00:37:19.814Z,77815.69
2023-03-29T00:39:48.256Z,77821.81
2023-03-29T00:42:18.578Z,77825.91
2023-03-29T00:45:02.675Z,77825.91
2023-03-29T00:47:37.889Z,77821.81
2023-03-29T00:50:13.218Z,77819.78
2023-03-29T00:52:42.709Z,77809.59
2023-03-29T00:55:15.889Z,77803.47
2023-03-29T00:57:46.814Z,77807.53
2023-03-29T01:00:20.837Z,77807.53
2023-03-29T01:02:54.257Z,77807.53
2023-03-29T01:05:27.189Z,77809.59
2023-03-29T01:08:00.153Z,77815.69
2023-03-29T01:10:34.024Z,77815.69
2023-03-29T01:13:06.135Z,77809.59
2023-03-29T01:15:34.846Z,77811.63
2023-03-29T01:18:04.088Z,77813.66
2023-03-29T01:20:44.694Z,77819.78
2023-03-29T01:23:38.160Z,77817.75
2023-03-29T01:26:18.894Z,77819.78
2023-03-29T01:28:52.636Z,77825.91
2023-03-29T01:31:25.281Z,77823.84
2023-03-29T01:33:59.795Z,77825.91
2023-03-29T01:36:31.425Z,77825.91
2023-03-29T01:39:05.007Z,77823.84
2023-03-29T01:41:39.741Z,77827.94
2023-03-29T01:44:15.336Z,77827.94
2023-03-29T01:46:47.778Z,77821.81
2023-03-29T01:49:22.516Z,77819.78
2023-03-29T01:51:54.806Z,77823.84
2023-03-29T01:54:27.241Z,77815.69
2023-03-29T01:56:57.035Z,77815.69
2023-03-29T01:59:29.709Z,77807.53
2023-03-29T02:02:01.071Z,77805.50
2023-03-29T02:04:34.249Z,77807.53
2023-03-29T02:07:04.428Z,77807.53
2023-03-29T02:09:34.646Z,77811.63
2023-03-29T02:12:04.446Z,77819.78
2023-03-29T02:14:33.620Z,77819.78
2023-03-29T02:17:20.273Z,77815.69
2023-03-29T02:19:51.175Z,77807.53
2023-03-29T02:22:24.839Z,77815.69
2023-03-29T02:24:59.208Z,77815.69
2023-03-29T02:27:29.607Z,77815.69
2023-03-29T02:29:59.345Z,77815.69
2023-03-29T02:32:34.460Z,77803.47
2023-03-29T02:35:08.458Z,77805.50
2023-03-29T02:37:40.570Z,77803.47
2023-03-29T02:40:12.736Z,77799.38
2023-03-29T02:42:40.982Z,77791.22
2023-03-29T02:45:13.809Z,77783.06
2023-03-29T02:47:45.533Z,77770.81
2023-03-29T02:50:13.934Z,77776.94
2023-03-29T02:52:48.533Z,77783.06
2023-03-29T02:55:18.776Z,77774.91
2023-03-29T02:57:46.619Z,77766.75
2023-03-29T03:00:20.146Z,77764.72
2023-03-29T03:02:49.045Z,77770.81
2023-03-29T03:05:17.522Z,77766.75
2023-03-29T03:07:46.189Z,77758.59
2023-03-29T03:10:14.151Z,77760.63
2023-03-29T03:12:41.975Z,77758.59
2023-03-29T03:15:10.547Z,77762.66
2023-03-29T03:17:40.374Z,77750.44
2023-03-29T03:20:13.037Z,77758.59
2023-03-29T03:22:42.269Z,77770.81
2023-03-29T03:25:13.349Z,77760.63
2023-03-29T03:27:41.332Z,77744.31
2023-03-29T03:30:10.959Z,77760.63
2023-03-29T03:32:40.207Z,77770.81
2023-03-29T03:35:08.783Z,77748.38
2023-03-29T03:37:38.336Z,77738.19
2023-03-29T03:40:11.847Z,77750.44
2023-03-29T03:42:40.103Z,77742.28
2023-03-29T03:45:09.846Z,77736.16
2023-03-29T03:47:38.529Z,77730.03
2023-03-29T03:50:09.653Z,77723.91
2023-03-29T03:52:37.381Z,77721.88
2023-03-29T03:55:05.653Z,77730.03
2023-03-29T03:57:37.462Z,77721.88
2023-03-29T04:00:19.351Z,77721.88
2023-03-29T04:02:48.255Z,77701.47
2023-03-29T04:05:18.098Z,77713.72
2023-03-29T04:07:45.839Z,77709.63
2023-03-29T04:10:13.661Z,77705.56
2023-03-29T04:12:41.447Z,77717.78
2023-03-29T04:15:10.505Z,77717.78
2023-03-29T04:17:38.738Z,77711.66
2023-03-29T04:20:11.627Z,77713.72
2023-03-29T04:22:41.057Z,77707.59
2023-03-29T04:25:10.398Z,77707.59
2023-03-29T04:27:38.306Z,77697.41
2023-03-29T04:30:08.131Z,77697.41
2023-03-29T04:32:36.236Z,77711.66
2023-03-29T04:35:04.842Z,77701.47
2023-03-29T04:37:32.833Z,77697.41
2023-03-29T04:40:02.532Z,77689.25
2023-03-29T04:42:30.263Z,77693.31
2023-03-29T04:44:58.517Z,77709.63
2023-03-29T04:47:29.886Z,77711.66
2023-03-29T04:49:58.036Z,77701.47
2023-03-29T04:52:26.521Z,77681.06
2023-03-29T04:54:54.388Z,77691.28
2023-03-29T04:57:23.690Z,77677.00
2023-03-29T04:59:51.458Z,77660.69
2023-03-29T05:02:20.083Z,77656.59
2023-03-29T05:04:47.952Z,77658.63
2023-03-29T05:07:17.677Z,77654.56
2023-03-29T05:09:45.414Z,77660.69
2023-03-29T05:12:13.270Z,77648.44
2023-03-29T05:14:42.362Z,77632.13
2023-03-29T05:17:10.314Z,77628.03
2023-03-29T05:19:38.404Z,77634.16
2023-03-29T05:22:06.644Z,77640.28
2023-03-29T05:24:34.379Z,77638.25
2023-03-29T05:27:02.334Z,77644.38
2023-03-29T05:29:32.713Z,77630.09
2023-03-29T05:32:01.972Z,77634.16
2023-03-29T05:34:31.443Z,77611.72
2023-03-29T05:37:00.878Z,77623.97
2023-03-29T05:39:28.681Z,77623.97
2023-03-29T05:41:56.521Z,77615.81
2023-03-29T05:44:24.244Z,77615.81
2023-03-29T05:46:51.972Z,77613.75
2023-03-29T05:49:21.501Z,77611.72
2023-03-29T05:51:49.292Z,77603.56
2023-03-29T05:54:17.043Z,77603.56
2023-03-29T05:56:44.912Z,77605.59
2023-03-29T05:59:13.768Z,77593.38
2023-03-29T06:01:41.783Z,77591.31
2023-03-29T06:04:10.742Z,77587.25
2023-03-29T06:06:40.639Z,77579.09
2023-03-29T06:09:09.443Z,77570.94
2023-03-29T06:11:37.367Z,77562.78
2023-03-29T06:14:05.144Z,77560.72
2023-03-29T06:16:33.102Z,77554.63
2023-03-29T06:19:00.917Z,77552.56
2023-03-29T06:21:28.641Z,77542.38
2023-03-29T06:23:57.781Z,77532.19
2023-03-29T06:26:27.708Z,77524.03
2023-03-29T06:28:55.446Z,77521.97
2023-03-29T06:31:23.280Z,77513.81
2023-03-29T06:33:51.151Z,77505.66
2023-03-29T06:36:20.204Z,77501.59
2023-03-29T06:38:47.977Z,77491.38
2023-03-29T06:41:17.210Z,77481.19
2023-03-29T06:43:45.080Z,77473.03
2023-03-29T06:46:13.375Z,77473.03
2023-03-29T06:48:42.018Z,77464.88
2023-03-29T06:51:10.014Z,77471.00
2023-03-29T06:53:38.065Z,77464.88
2023-03-29T06:56:09.291Z,77460.78
2023-03-29T06:58:39.150Z,77448.56
2023-03-29T07:01:07.768Z,77440.41
2023-03-29T07:03:36.344Z,77440.41
2023-03-29T07:06:09.966Z,77430.19
2023-03-29T07:08:43.391Z,77420.00
2023-03-29T07:11:13.192Z,77413.88
2023-03-29T07:13:43.120Z,77407.75
2023-03-29T07:16:12.698Z,77399.59
2023-03-29T07:18:41.828Z,77393.47
2023-03-29T07:21:11.528Z,77395.53
2023-03-29T07:23:39.508Z,77387.38
2023-03-29T07:26:08.505Z,77383.28
2023-03-29T07:28:37.395Z,77391.44
2023-03-29T07:31:11.060Z,77397.56
2023-03-29T07:33:39.867Z,77387.38
2023-03-29T07:36:09.210Z,77383.28
2023-03-29T07:38:37.093Z,77373.09
2023-03-29T07:41:06.696Z,77360.84
2023-03-29T07:43:34.788Z,77350.66
2023-03-29T07:46:03.112Z,77342.50
2023-03-29T07:48:32.427Z,77338.41
2023-03-29T07:51:00.993Z,77332.31
2023-03-29T07:53:29.718Z,77326.19
2023-03-29T07:55:57.871Z,77313.94
2023-03-29T07:58:25.659Z,77311.91
2023-03-29T08:00:53.555Z,77313.94
2023-03-29T08:03:21.706Z,77322.09
2023-03-29T08:05:51.524Z,77318.03
2023-03-29T08:08:19.271Z,77320.06
2023-03-29T08:10:47.100Z,77309.88
2023-03-29T08:13:14.821Z,77313.94
2023-03-29T08:15:46.304Z,77309.88
2023-03-29T08:18:14.204Z,77309.88
2023-03-29T08:20:42.603Z,77301.72
2023-03-29T08:23:11.773Z,77303.75
2023-03-29T08:25:39.647Z,77297.63
2023-03-29T08:28:07.400Z,77297.63
2023-03-29T08:30:35.245Z,77289.47
2023-03-29T08:33:03.142Z,77281.31
2023-03-29T08:35:31.029Z,77265.00
2023-03-29T08:37:58.784Z,77262.97
2023-03-29T08:40:30.028Z,77275.19
2023-03-29T08:43:21.303Z,77256.84
2023-03-29T08:46:00.057Z,77238.47
2023-03-29T08:48:30.931Z,77240.53
2023-03-29T08:51:02.685Z,77228.28
2023-03-29T08:53:34.755Z,77207.88
2023-03-29T08:56:08.643Z,77187.50
2023-03-29T08:58:39.148Z,77175.25
2023-03-29T09:01:11.332Z,77167.09
2023-03-29T09:03:45.935Z,77144.66
2023-03-29T09:06:14.755Z,77140.59
2023-03-29T09:08:45.080Z,77134.47
2023-03-29T09:11:29.853Z,77156.91
2023-03-29T09:14:10.932Z,77165.06
2023-03-29T09:16:43.251Z,77163.03
2023-03-29T09:19:32.263Z,77165.06
2023-03-29T09:22:06.765Z,77179.34
2023-03-29T09:24:45.467Z,77203.81
2023-03-29T09:27:25.381Z,77222.16
2023-03-29T09:30:10.815Z,77216.03
2023-03-29T09:32:45.129Z,77236.44
2023-03-29T09:35:19.181Z,77228.28
2023-03-29T09:37:50.026Z,77222.16
2023-03-29T09:40:21.622Z,77205.84
2023-03-29T09:42:54.859Z,77207.88
2023-03-29T09:45:23.722Z,77211.97
2023-03-29T09:47:56.384Z,77214.00
2023-03-29T09:50:32.043Z,77199.72
2023-03-29T09:53:00.635Z,77175.25
2023-03-29T09:55:32.366Z,77175.25
2023-03-29T09:58:03.470Z,77167.09
2023-03-29T10:00:31.277Z,77138.56
2023-03-29T10:03:00.445Z,77103.88
2023-03-29T10:05:37.855Z,77085.53
2023-03-29T10:08:19.735Z,77073.28
2023-03-29T10:10:48.383Z,77048.81
2023-03-29T10:13:23.852Z,77040.66
2023-03-29T10:16:01.849Z,77052.91
2023-03-29T10:18:31.576Z,77054.94
2023-03-29T10:21:01.288Z,77071.25
2023-03-29T10:23:32.715Z,77040.66
2023-03-29T10:26:00.842Z,77038.63
2023-03-29T10:28:31.055Z,77032.50
2023-03-29T10:31:03.740Z,77028.41
2023-03-29T10:33:34.646Z,77032.50
2023-03-29T10:36:06.401Z,77048.81
2023-03-29T10:38:37.104Z,77048.81
2023-03-29T10:41:10.001Z,77054.94
2023-03-29T10:43:43.701Z,77069.22
2023-03-29T10:46:14.405Z,77093.69
2023-03-29T10:48:47.242Z,77093.69
2023-03-29T10:51:15.834Z,77081.44
2023-03-29T10:53:44.106Z,77085.53
2023-03-29T10:56:40.271Z,77075.31
2023-03-29T10:59:23.103Z,77065.13
2023-03-29T11:02:02.950Z,77056.97
2023-03-29T11:04:38.934Z,77048.81
2023-03-29T11:07:27.240Z,77040.66
2023-03-29T11:10:05.846Z,77028.41
2023-03-29T11:12:44.632Z,77012.09
2023-03-29T11:15:37.614Z,77032.50
2023-03-29T11:18:25.162Z,77012.09
2023-03-29T11:21:01.657Z,77006.00
2023-03-29T11:23:44.180Z,77010.06
2023-03-29T11:26:19.035Z,77012.09
2023-03-29T11:28:53.986Z,77006.00
2023-03-29T11:31:38.380Z,76999.88
2023-03-29T11:34:21.835Z,76999.88
2023-03-29T11:36:55.114Z,76991.72
2023-03-29T11:39:31.577Z,76995.78
2023-03-29T11:42:06.776Z,76999.88
2023-03-29T11:44:37.023Z,77020.25
2023-03-29T11:47:13.997Z,77008.03
2023-03-29T11:49:46.627Z,76987.63
2023-03-29T11:52:19.252Z,76971.31
2023-03-29T11:54:53.360Z,76967.25
2023-03-29T11:57:25.384Z,76973.38
2023-03-29T11:59:57.993Z,76961.13
2023-03-29T12:02:32.911Z,76963.16
2023-03-29T12:05:07.601Z,76959.09
2023-03-29T12:07:40.940Z,76952.97
2023-03-29T12:10:17.675Z,76934.63
2023-03-29T12:12:49.316Z,76922.38
2023-03-29T12:15:21.521Z,76897.91
2023-03-29T12:17:59.138Z,76873.44
2023-03-29T12:20:32.255Z,76846.94
2023-03-29T12:23:00.747Z,76828.56
2023-03-29T12:25:32.950Z,76816.34
2023-03-29T12:28:23.157Z,76795.94
2023-03-29T12:31:02.080Z,76775.56
2023-03-29T12:34:04.084Z,76765.34
2023-03-29T12:36:47.326Z,76749.03
2023-03-29T12:39:17.707Z,76753.13
2023-03-29T12:41:49.006Z,76753.13
2023-03-29T12:44:21.407Z,76722.53
2023-03-29T12:46:52.915Z,76691.94
2023-03-29T12:49:29.140Z,76677.69
2023-03-29T12:52:00.079Z,76671.56
2023-03-29T12:54:31.696Z,76689.91
2023-03-29T12:57:02.571Z,76681.75
2023-03-29T12:59:40.636Z,76675.63
2023-03-29T13:02:28.194Z,76671.56
2023-03-29T13:05:01.087Z,76651.16
2023-03-29T13:07:32.356Z,76645.03
2023-03-29T13:10:01.508Z,76645.03
2023-03-29T13:12:36.806Z,76649.13
2023-03-29T13:15:07.996Z,76645.03
2023-03-29T13:17:46.268Z,76628.72
2023-03-29T13:20:39.295Z,76620.56
2023-03-29T13:23:24.091Z,76604.28
2023-03-29T13:26:09.485Z,76592.03
2023-03-29T13:28:47.132Z,76565.53
2023-03-29T13:31:27.992Z,76551.25
2023-03-29T13:34:03.633Z,76543.09
2023-03-29T13:36:54.395Z,76534.94
2023-03-29T13:39:25.562Z,76539.00
2023-03-29T13:42:06.227Z,76545.13
2023-03-29T13:44:44.298Z,76518.63
2023-03-29T13:47:30.045Z,76502.31
2023-03-29T13:50:01.545Z,76475.81
2023-03-29T13:52:34.955Z,76461.53
2023-03-29T13:55:08.639Z,76451.34
2023-03-29T13:57:40.885Z,76451.34
2023-03-29T14:00:18.152Z,76441.16
2023-03-29T14:02:50.662Z,76441.16
2023-03-29T14:05:22.662Z,76435.03
2023-03-29T14:07:54.465Z,76435.03
2023-03-29T14:10:26.800Z,76437.06
2023-03-29T14:12:56.628Z,76439.09
2023-03-29T14:15:26.655Z,76420.75
2023-03-29T14:17:58.986Z,76412.59
2023-03-29T14:20:29.618Z,76402.41
2023-03-29T14:22:58.857Z,76392.22
2023-03-29T14:25:27.263Z,76388.13
2023-03-29T14:27:55.004Z,76392.22
2023-03-29T14:30:28.281Z,76379.97
2023-03-29T14:32:56.798Z,76367.75
2023-03-29T14:35:30.687Z,76367.75
2023-03-29T14:38:00.398Z,76367.75
2023-03-29T14:40:28.581Z,76361.63
2023-03-29T14:42:56.408Z,76347.34
2023-03-29T14:45:24.795Z,76331.03
2023-03-29T14:47:53.098Z,76326.97
2023-03-29T14:50:25.037Z,76326.97
2023-03-29T14:52:53.565Z,76322.88
2023-03-29T14:55:24.847Z,76322.88
2023-03-29T14:57:55.700Z,76314.72
2023-03-29T15:00:28.164Z,76292.28
2023-03-29T15:02:57.985Z,76273.94
2023-03-29T15:05:33.783Z,76249.47
2023-03-29T15:08:02.864Z,76245.41
2023-03-29T15:10:35.040Z,76249.47
2023-03-29T15:13:03.775Z,76263.75
2023-03-29T15:15:34.616Z,76269.88
2023-03-29T15:18:03.960Z,76273.94
2023-03-29T15:20:35.660Z,76276.00
2023-03-29T15:23:05.364Z,76265.78
2023-03-29T15:25:37.183Z,76261.72
2023-03-29T15:28:05.202Z,76257.63
2023-03-29T15:30:35.950Z,76253.56
2023-03-29T15:33:21.304Z,76245.41
2023-03-29T15:35:52.903Z,76229.09
2023-03-29T15:38:27.520Z,76225.00
2023-03-29T15:41:00.232Z,76229.09
2023-03-29T15:43:28.265Z,76237.25
2023-03-29T15:45:56.026Z,76251.53
2023-03-29T15:48:25.693Z,76249.47
2023-03-29T15:50:54.621Z,76249.47
2023-03-29T15:53:23.678Z,76247.44
2023-03-29T15:55:53.989Z,76241.31
2023-03-29T15:58:25.656Z,76233.16
2023-03-29T16:00:59.237Z,76229.09
2023-03-29T16:03:28.290Z,76229.09
2023-03-29T16:05:57.035Z,76233.16
2023-03-29T16:08:25.333Z,76235.22
2023-03-29T16:10:53.183Z,76233.16
2023-03-29T16:13:21.070Z,76237.25
2023-03-29T16:15:50.154Z,76249.47
2023-03-29T16:18:17.924Z,76247.44
2023-03-29T16:20:46.596Z,76249.47
2023-03-29T16:23:14.369Z,76253.56
2023-03-29T16:25:42.687Z,76253.56
2023-03-29T16:28:10.656Z,76261.72
2023-03-29T16:30:39.019Z,76263.75
2023-03-29T16:33:08.352Z,76273.94
2023-03-29T16:35:39.865Z,76273.94
2023-03-29T16:38:09.107Z,76280.06
2023-03-29T16:40:37.637Z,76282.09
2023-03-29T16:43:05.500Z,76294.34
2023-03-29T16:45:33.234Z,76298.41
2023-03-29T16:48:01.720Z,76310.66
2023-03-29T16:50:30.841Z,76316.75
2023-03-29T16:52:58.609Z,76318.81
2023-03-29T16:55:26.447Z,76324.91
2023-03-29T16:57:54.221Z,76335.13
2023-03-29T17:00:23.090Z,76343.28
2023-03-29T17:02:51.033Z,76351.44
2023-03-29T17:05:19.803Z,76349.38
2023-03-29T17:07:48.869Z,76355.50
2023-03-29T17:10:16.649Z,76363.66
2023-03-29T17:12:44.384Z,76365.69
2023-03-29T17:15:12.262Z,76371.81
2023-03-29T17:17:40.210Z,76367.75
2023-03-29T17:20:11.834Z,76375.91
2023-03-29T17:22:39.996Z,76384.06
2023-03-29T17:25:10.028Z,76388.13
2023-03-29T17:27:38.465Z,76390.16
2023-03-29T17:30:07.386Z,76404.44
2023-03-29T17:32:35.676Z,76400.38
2023-03-29T17:35:03.876Z,76406.47
2023-03-29T17:37:31.786Z,76414.63
2023-03-29T17:39:59.558Z,76416.69
2023-03-29T17:42:28.888Z,76416.69
2023-03-29T17:44:56.702Z,76424.84
2023-03-29T17:47:24.458Z,76428.91
2023-03-29T17:49:52.592Z,76432.97
2023-03-29T17:52:20.422Z,76445.22
2023-03-29T17:54:48.159Z,76445.22
2023-03-29T17:57:16.275Z,76449.28
2023-03-29T17:59:45.490Z,76457.44
2023-03-29T18:02:17.774Z,76459.50
2023-03-29T18:04:46.149Z,76461.53
2023-03-29T18:07:14.059Z,76455.41
2023-03-29T18:09:43.111Z,76461.53
2023-03-29T18:12:11.017Z,76465.63
2023-03-29T18:14:38.789Z,76471.72
2023-03-29T18:17:07.951Z,76475.81
2023-03-29T18:19:35.830Z,76477.84
2023-03-29T18:22:04.019Z,76479.88
2023-03-29T18:24:31.915Z,76486.00
2023-03-29T18:26:59.818Z,76488.03
2023-03-29T18:29:27.722Z,76486.00
2023-03-29T18:31:55.591Z,76494.16
2023-03-29T18:34:25.025Z,76500.28
2023-03-29T18:36:53.657Z,76508.44
2023-03-29T18:39:21.400Z,76514.53
2023-03-29T18:41:49.335Z,76520.66
2023-03-29T18:44:17.343Z,76530.84
2023-03-29T18:46:45.536Z,76536.97
2023-03-29T18:49:13.632Z,76543.09
2023-03-29T18:51:44.102Z,76547.16
2023-03-29T18:54:11.846Z,76555.31
2023-03-29T18:56:39.667Z,76553.28
2023-03-29T18:59:07.455Z,76551.25
2023-03-29T19:01:35.354Z,76557.38
2023-03-29T19:04:03.335Z,76555.31
2023-03-29T19:06:31.708Z,76551.25
2023-03-29T19:09:02.069Z,76547.16
2023-03-29T19:11:30.575Z,76547.16
2023-03-29T19:13:58.420Z,76555.31
2023-03-29T19:16:27.493Z,76561.44
2023-03-29T19:18:55.473Z,76569.59
2023-03-29T19:21:23.256Z,76567.56
2023-03-29T19:23:54.211Z,76565.53
2023-03-29T19:26:23.395Z,76571.63
2023-03-29T19:28:51.222Z,76567.56
2023-03-29T19:31:19.146Z,76559.41
2023-03-29T19:33:47.405Z,76565.53
2023-03-29T19:36:15.236Z,76567.56
2023-03-29T19:38:43.581Z,76563.47
2023-03-29T19:41:12.124Z,76567.56
2023-03-29T19:43:41.267Z,76563.47
2023-03-29T19:46:11.671Z,76571.63
2023-03-29T19:48:41.034Z,76575.72
2023-03-29T19:51:09.100Z,76581.84
2023-03-29T19:53:38.639Z,76583.88
2023-03-29T19:56:07.746Z,76583.88
2023-03-29T19:58:36.150Z,76579.78
2023-03-29T20:01:06.047Z,76583.88
2023-03-29T20:03:34.383Z,76579.78
2023-03-29T20:06:02.666Z,76575.72
2023-03-29T20:08:30.540Z,76573.69
2023-03-29T20:10:59.582Z,76571.63
2023-03-29T20:13:37.696Z,76571.63
2023-03-29T20:16:09.227Z,76571.63
2023-03-29T20:18:38.592Z,76575.72
2023-03-29T20:21:06.874Z,76567.56
2023-03-29T20:23:35.296Z,76567.56
2023-03-29T20:26:03.176Z,76567.56
2023-03-29T20:28:31.482Z,76571.63
2023-03-29T20:31:04.132Z,76579.78
2023-03-29T20:33:33.693Z,76583.88
2023-03-29T20:36:01.559Z,76587.94
2023-03-29T20:38:29.423Z,76602.22
2023-03-29T20:40:57.203Z,76600.19
2023-03-29T20:43:25.034Z,76604.28
2023-03-29T20:45:54.269Z,76604.28
2023-03-29T20:48:24.736Z,76608.34
2023-03-29T20:50:54.212Z,76616.50
2023-03-29T20:53:21.960Z,76616.50
2023-03-29T20:55:49.805Z,76624.66
2023-03-29T20:58:17.638Z,76630.78
2023-03-29T21:00:46.794Z,76638.94
2023-03-29T21:03:14.699Z,76649.13
2023-03-29T21:05:43.366Z,76661.38
2023-03-29T21:08:12.464Z,76665.44
2023-03-29T21:10:42.424Z,76659.31
2023-03-29T21:13:10.219Z,76669.53
2023-03-29T21:15:38.107Z,76677.69
2023-03-29T21:18:06.807Z,76689.91
2023-03-29T21:20:37.584Z,76689.91
2023-03-29T21:23:05.326Z,76685.81
2023-03-29T21:25:34.536Z,76685.81
2023-03-29T21:28:02.391Z,76694.00
2023-03-29T21:30:31.996Z,76698.06
2023-03-29T21:33:00.470Z,76689.91
2023-03-29T21:35:28.393Z,76681.75
2023-03-29T21:37:56.369Z,76677.69
2023-03-29T21:40:24.116Z,76681.75
2023-03-29T21:42:53.324Z,76694.00
2023-03-29T21:45:21.093Z,76698.06
2023-03-29T21:47:48.852Z,76700.09
2023-03-29T21:50:16.933Z,76694.00
2023-03-29T21:52:44.681Z,76685.81
2023-03-29T21:55:12.941Z,76677.69
2023-03-29T21:57:40.791Z,76685.81
2023-03-29T22:00:12.727Z,76685.81
2023-03-29T22:02:41.453Z,76685.81
2023-03-29T22:05:09.967Z,76689.91
2023-03-29T22:07:45.546Z,76702.16
2023-03-29T22:10:13.892Z,76706.22
2023-03-29T22:12:41.704Z,76720.50
2023-03-29T22:15:12.505Z,76730.69
2023-03-29T22:17:41.393Z,76730.69
2023-03-29T22:20:12.750Z,76744.97
2023-03-29T22:22:40.783Z,76744.97
2023-03-29T22:25:09.432Z,76747.00
2023-03-29T22:27:37.578Z,76744.97
2023-03-29T22:30:06.825Z,76734.78
2023-03-29T22:32:36.323Z,76738.84
2023-03-29T22:35:04.711Z,76738.84
2023-03-29T22:37:32.507Z,76730.69
2023-03-29T22:40:00.497Z,76726.63
2023-03-29T22:42:28.219Z,76718.47
2023-03-29T22:44:56.035Z,76722.53
2023-03-29T22:47:23.828Z,76726.63
2023-03-29T22:49:53.055Z,76736.81
2023-03-29T22:52:20.926Z,76742.94
2023-03-29T22:54:48.648Z,76730.69
2023-03-29T22:57:16.720Z,76726.63
2023-03-29T22:59:44.618Z,76716.41
2023-03-29T23:02:12.360Z,76710.31
2023-03-29T23:04:40.231Z,76712.34
2023-03-29T23:07:09.474Z,76710.31
2023-03-29T23:09:37.583Z,76716.41
2023-03-29T23:12:05.774Z,76714.38
2023-03-29T23:14:33.906Z,76714.38
2023-03-29T23:17:01.659Z,76706.22
2023-03-29T23:19:29.424Z,76702.16
2023-03-29T23:21:57.474Z,76700.09
2023-03-29T23:24:26.644Z,76685.81
2023-03-29T23:26:55.294Z,76681.75
2023-03-29T23:29:23.111Z,76673.59
2023-03-29T23:31:51.029Z,76673.59
2023-03-29T23:34:20.240Z,76663.41
2023-03-29T23:36:48.059Z,76663.41
2023-03-29T23:39:16.121Z,76661.38
2023-03-29T23:41:45.592Z,76657.28
2023-03-29T23:44:13.398Z,76661.38
2023-03-29T23:46:41.924Z,76669.53
2023-03-29T23:49:10.559Z,76669.53
2023-03-29T23:51:39.232Z,76669.53
2023-03-29T23:54:07.149Z,76669.53
2023-03-29T23:56:34.939Z,76681.75
2023-03-29T23:59:04.465Z,76677.69
